sensor_id;sensor_type;location;lat;lon;timestamp;P1;durP1;ratioP1;P2;durP2;ratioP2
49998;SDS011;68071;45.062;7.356;2023-08-07T00:00:23;1.23;;;0.30;;
49998;SDS011;68071;45.062;7.356;2023-08-07T00:03:27;0.80;;;0.32;;
49998;SDS011;68071;45.062;7.356;2023-08-07T00:06:31;0.75;;;0.40;;
49998;SDS011;68071;45.062;7.356;2023-08-07T00:09:35;0.77;;;0.35;;
49998;SDS011;68071;45.062;7.356;2023-08-07T00:12:39;1.00;;;0.30;;
49998;SDS011;68071;45.062;7.356;2023-08-07T00:15:44;1.08;;;0.47;;
49998;SDS011;68071;45.062;7.356;2023-08-07T00:18:48;1.50;;;0.40;;
49998;SDS011;68071;45.062;7.356;2023-08-07T00:21:52;1.38;;;0.40;;
49998;SDS011;68071;45.062;7.356;2023-08-07T00:24:56;0.88;;;0.30;;
49998;SDS011;68071;45.062;7.356;2023-08-07T00:28:02;1.30;;;0.30;;
49998;SDS011;68071;45.062;7.356;2023-08-07T00:31:06;1.27;;;0.38;;
49998;SDS011;68071;45.062;7.356;2023-08-07T00:34:10;0.90;;;0.30;;
49998;SDS011;68071;45.062;7.356;2023-08-07T00:37:14;0.52;;;0.40;;
49998;SDS011;68071;45.062;7.356;2023-08-07T00:40:18;0.95;;;0.40;;
49998;SDS011;68071;45.062;7.356;2023-08-07T00:43:23;1.02;;;0.45;;
49998;SDS011;68071;45.062;7.356;2023-08-07T00:46:27;1.23;;;0.30;;
49998;SDS011;68071;45.062;7.356;2023-08-07T00:49:32;1.45;;;0.55;;
49998;SDS011;68071;45.062;7.356;2023-08-07T00:52:37;0.40;;;0.20;;
49998;SDS011;68071;45.062;7.356;2023-08-07T00:55:41;1.10;;;0.40;;
49998;SDS011;68071;45.062;7.356;2023-08-07T00:58:46;0.95;;;0.20;;
49998;SDS011;68071;45.062;7.356;2023-08-07T01:01:49;1.52;;;0.40;;
49998;SDS011;68071;45.062;7.356;2023-08-07T01:04:54;1.92;;;0.50;;
49998;SDS011;68071;45.062;7.356;2023-08-07T01:07:57;0.68;;;0.30;;
49998;SDS011;68071;45.062;7.356;2023-08-07T01:14:37;1.38;;;0.32;;
49998;SDS011;68071;45.062;7.356;2023-08-07T01:18:02;0.60;;;0.30;;
49998;SDS011;68071;45.062;7.356;2023-08-07T01:21:15;0.88;;;0.40;;
49998;SDS011;68071;45.062;7.356;2023-08-07T01:24:21;0.40;;;0.30;;
49998;SDS011;68071;45.062;7.356;2023-08-07T01:27:50;1.25;;;0.32;;
49998;SDS011;68071;45.062;7.356;2023-08-07T01:31:05;0.45;;;0.20;;
49998;SDS011;68071;45.062;7.356;2023-08-07T01:34:17;0.57;;;0.35;;
49998;SDS011;68071;45.062;7.356;2023-08-07T01:37:26;0.90;;;0.47;;
49998;SDS011;68071;45.062;7.356;2023-08-07T01:40:32;1.10;;;0.32;;
49998;SDS011;68071;45.062;7.356;2023-08-07T01:43:38;1.48;;;0.47;;
49998;SDS011;68071;45.062;7.356;2023-08-07T01:46:42;0.68;;;0.30;;
49998;SDS011;68071;45.062;7.356;2023-08-07T01:49:46;0.60;;;0.30;;
49998;SDS011;68071;45.062;7.356;2023-08-07T01:52:50;0.98;;;0.40;;
49998;SDS011;68071;45.062;7.356;2023-08-07T01:55:54;0.95;;;0.45;;
49998;SDS011;68071;45.062;7.356;2023-08-07T01:58:58;1.05;;;0.40;;
49998;SDS011;68071;45.062;7.356;2023-08-07T02:02:02;1.80;;;0.43;;
49998;SDS011;68071;45.062;7.356;2023-08-07T02:05:07;1.98;;;0.60;;
49998;SDS011;68071;45.062;7.356;2023-08-07T02:08:10;1.58;;;0.40;;
49998;SDS011;68071;45.062;7.356;2023-08-07T02:11:15;1.27;;;0.50;;
49998;SDS011;68071;45.062;7.356;2023-08-07T02:14:19;1.20;;;0.50;;
49998;SDS011;68071;45.062;7.356;2023-08-07T02:17:24;1.65;;;0.40;;
49998;SDS011;68071;45.062;7.356;2023-08-07T02:20:28;1.50;;;0.40;;
49998;SDS011;68071;45.062;7.356;2023-08-07T02:23:32;1.10;;;0.50;;
49998;SDS011;68071;45.062;7.356;2023-08-07T02:26:39;1.05;;;0.52;;
49998;SDS011;68071;45.062;7.356;2023-08-07T02:29:43;1.60;;;0.40;;
49998;SDS011;68071;45.062;7.356;2023-08-07T02:32:47;1.45;;;0.47;;
49998;SDS011;68071;45.062;7.356;2023-08-07T02:35:52;0.60;;;0.30;;
49998;SDS011;68071;45.062;7.356;2023-08-07T02:38:57;0.77;;;0.40;;
49998;SDS011;68071;45.062;7.356;2023-08-07T02:42:01;1.10;;;0.40;;
49998;SDS011;68071;45.062;7.356;2023-08-07T02:45:05;1.30;;;0.50;;
49998;SDS011;68071;45.062;7.356;2023-08-07T02:48:09;1.00;;;0.60;;
49998;SDS011;68071;45.062;7.356;2023-08-07T02:51:14;1.27;;;0.50;;
49998;SDS011;68071;45.062;7.356;2023-08-07T02:54:18;1.00;;;0.40;;
49998;SDS011;68071;45.062;7.356;2023-08-07T02:57:22;1.33;;;0.40;;
49998;SDS011;68071;45.062;7.356;2023-08-07T03:00:26;1.55;;;0.57;;
49998;SDS011;68071;45.062;7.356;2023-08-07T03:03:30;2.08;;;0.63;;
49998;SDS011;68071;45.062;7.356;2023-08-07T03:06:34;0.98;;;0.50;;
49998;SDS011;68071;45.062;7.356;2023-08-07T03:09:38;2.05;;;0.55;;
49998;SDS011;68071;45.062;7.356;2023-08-07T03:12:42;1.50;;;0.50;;
49998;SDS011;68071;45.062;7.356;2023-08-07T03:15:46;0.80;;;0.40;;
49998;SDS011;68071;45.062;7.356;2023-08-07T03:18:52;0.95;;;0.45;;
49998;SDS011;68071;45.062;7.356;2023-08-07T03:21:56;2.28;;;0.60;;
49998;SDS011;68071;45.062;7.356;2023-08-07T03:25:00;0.70;;;0.40;;
49998;SDS011;68071;45.062;7.356;2023-08-07T03:28:05;1.33;;;0.55;;
49998;SDS011;68071;45.062;7.356;2023-08-07T03:31:09;0.90;;;0.40;;
49998;SDS011;68071;45.062;7.356;2023-08-07T03:34:14;1.08;;;0.65;;
49998;SDS011;68071;45.062;7.356;2023-08-07T03:37:18;0.90;;;0.40;;
49998;SDS011;68071;45.062;7.356;2023-08-07T03:40:22;2.08;;;0.40;;
49998;SDS011;68071;45.062;7.356;2023-08-07T03:43:26;1.45;;;0.40;;
49998;SDS011;68071;45.062;7.356;2023-08-07T03:46:30;1.42;;;0.50;;
49998;SDS011;68071;45.062;7.356;2023-08-07T03:49:35;1.63;;;0.68;;
49998;SDS011;68071;45.062;7.356;2023-08-07T03:52:40;1.33;;;0.60;;
49998;SDS011;68071;45.062;7.356;2023-08-07T03:55:48;0.90;;;0.50;;
49998;SDS011;68071;45.062;7.356;2023-08-07T03:58:54;2.03;;;0.40;;
49998;SDS011;68071;45.062;7.356;2023-08-07T04:02:00;0.50;;;0.38;;
49998;SDS011;68071;45.062;7.356;2023-08-07T04:05:04;1.45;;;0.50;;
49998;SDS011;68071;45.062;7.356;2023-08-07T04:08:08;0.80;;;0.40;;
49998;SDS011;68071;45.062;7.356;2023-08-07T04:11:12;0.82;;;0.47;;
49998;SDS011;68071;45.062;7.356;2023-08-07T04:14:16;0.88;;;0.50;;
49998;SDS011;68071;45.062;7.356;2023-08-07T04:17:20;0.80;;;0.50;;
49998;SDS011;68071;45.062;7.356;2023-08-07T04:20:25;0.93;;;0.47;;
49998;SDS011;68071;45.062;7.356;2023-08-07T04:23:31;1.98;;;0.80;;
49998;SDS011;68071;45.062;7.356;2023-08-07T04:26:35;0.82;;;0.50;;
49998;SDS011;68071;45.062;7.356;2023-08-07T04:29:39;1.08;;;0.50;;
49998;SDS011;68071;45.062;7.356;2023-08-07T04:32:42;1.00;;;0.65;;
49998;SDS011;68071;45.062;7.356;2023-08-07T04:35:46;1.77;;;0.60;;
49998;SDS011;68071;45.062;7.356;2023-08-07T04:38:50;1.20;;;0.63;;
49998;SDS011;68071;45.062;7.356;2023-08-07T04:41:54;0.90;;;0.50;;
49998;SDS011;68071;45.062;7.356;2023-08-07T04:44:58;1.17;;;0.70;;
49998;SDS011;68071;45.062;7.356;2023-08-07T04:48:02;1.15;;;0.60;;
49998;SDS011;68071;45.062;7.356;2023-08-07T04:51:06;2.05;;;0.50;;
49998;SDS011;68071;45.062;7.356;2023-08-07T04:54:10;1.08;;;0.50;;
49998;SDS011;68071;45.062;7.356;2023-08-07T04:57:14;0.80;;;0.40;;
49998;SDS011;68071;45.062;7.356;2023-08-07T05:00:18;1.05;;;0.55;;
49998;SDS011;68071;45.062;7.356;2023-08-07T05:03:22;1.10;;;0.80;;
49998;SDS011;68071;45.062;7.356;2023-08-07T05:06:26;1.50;;;0.90;;
49998;SDS011;68071;45.062;7.356;2023-08-07T05:09:30;1.15;;;0.70;;
49998;SDS011;68071;45.062;7.356;2023-08-07T05:12:34;1.33;;;0.55;;
49998;SDS011;68071;45.062;7.356;2023-08-07T05:15:39;1.40;;;0.73;;
49998;SDS011;68071;45.062;7.356;2023-08-07T05:18:44;0.70;;;0.45;;
49998;SDS011;68071;45.062;7.356;2023-08-07T05:21:48;1.55;;;0.70;;
49998;SDS011;68071;45.062;7.356;2023-08-07T05:24:54;1.13;;;0.63;;
49998;SDS011;68071;45.062;7.356;2023-08-07T05:27:58;2.53;;;0.68;;
49998;SDS011;68071;45.062;7.356;2023-08-07T05:31:02;1.45;;;0.50;;
49998;SDS011;68071;45.062;7.356;2023-08-07T05:34:06;1.50;;;0.50;;
49998;SDS011;68071;45.062;7.356;2023-08-07T05:37:10;0.52;;;0.40;;
49998;SDS011;68071;45.062;7.356;2023-08-07T05:40:14;0.80;;;0.43;;
49998;SDS011;68071;45.062;7.356;2023-08-07T05:43:17;1.02;;;0.55;;
49998;SDS011;68071;45.062;7.356;2023-08-07T05:46:21;1.15;;;0.65;;
49998;SDS011;68071;45.062;7.356;2023-08-07T05:49:26;0.70;;;0.40;;
49998;SDS011;68071;45.062;7.356;2023-08-07T05:52:30;1.10;;;0.50;;
49998;SDS011;68071;45.062;7.356;2023-08-07T05:55:34;1.90;;;0.60;;
49998;SDS011;68071;45.062;7.356;2023-08-07T05:58:38;1.27;;;0.70;;
49998;SDS011;68071;45.062;7.356;2023-08-07T06:01:42;1.20;;;0.60;;
49998;SDS011;68071;45.062;7.356;2023-08-07T06:04:46;1.63;;;0.53;;
49998;SDS011;68071;45.062;7.356;2023-08-07T06:07:52;0.60;;;0.40;;
49998;SDS011;68071;45.062;7.356;2023-08-07T06:10:56;0.90;;;0.50;;
49998;SDS011;68071;45.062;7.356;2023-08-07T06:14:00;0.80;;;0.47;;
49998;SDS011;68071;45.062;7.356;2023-08-07T06:17:04;0.80;;;0.40;;
49998;SDS011;68071;45.062;7.356;2023-08-07T06:20:09;1.33;;;0.60;;
49998;SDS011;68071;45.062;7.356;2023-08-07T06:23:14;0.93;;;0.50;;
49998;SDS011;68071;45.062;7.356;2023-08-07T06:26:18;1.10;;;0.50;;
49998;SDS011;68071;45.062;7.356;2023-08-07T06:29:22;1.50;;;0.50;;
49998;SDS011;68071;45.062;7.356;2023-08-07T06:32:26;1.45;;;0.68;;
49998;SDS011;68071;45.062;7.356;2023-08-07T06:35:30;1.00;;;0.50;;
49998;SDS011;68071;45.062;7.356;2023-08-07T06:38:35;0.90;;;0.40;;
49998;SDS011;68071;45.062;7.356;2023-08-07T06:41:39;1.73;;;0.55;;
49998;SDS011;68071;45.062;7.356;2023-08-07T06:44:44;1.10;;;0.50;;
49998;SDS011;68071;45.062;7.356;2023-08-07T06:47:48;0.88;;;0.57;;
49998;SDS011;68071;45.062;7.356;2023-08-07T06:50:52;0.85;;;0.52;;
49998;SDS011;68071;45.062;7.356;2023-08-07T06:53:56;2.83;;;0.60;;
49998;SDS011;68071;45.062;7.356;2023-08-07T06:57:00;1.48;;;0.63;;
49998;SDS011;68071;45.062;7.356;2023-08-07T07:00:04;2.17;;;0.60;;
49998;SDS011;68071;45.062;7.356;2023-08-07T07:03:09;1.05;;;0.50;;
49998;SDS011;68071;45.062;7.356;2023-08-07T07:06:13;1.30;;;0.60;;
49998;SDS011;68071;45.062;7.356;2023-08-07T07:09:17;3.30;;;1.05;;
49998;SDS011;68071;45.062;7.356;2023-08-07T07:12:21;1.42;;;0.50;;
49998;SDS011;68071;45.062;7.356;2023-08-07T07:15:25;1.98;;;0.60;;
49998;SDS011;68071;45.062;7.356;2023-08-07T07:18:29;0.90;;;0.40;;
49998;SDS011;68071;45.062;7.356;2023-08-07T07:21:33;1.13;;;0.55;;
49998;SDS011;68071;45.062;7.356;2023-08-07T07:24:38;1.05;;;0.32;;
49998;SDS011;68071;45.062;7.356;2023-08-07T07:27:42;0.98;;;0.50;;
49998;SDS011;68071;45.062;7.356;2023-08-07T07:30:46;2.53;;;0.70;;
49998;SDS011;68071;45.062;7.356;2023-08-07T07:33:50;1.67;;;0.50;;
49998;SDS011;68071;45.062;7.356;2023-08-07T07:36:54;1.77;;;0.50;;
49998;SDS011;68071;45.062;7.356;2023-08-07T07:39:58;0.85;;;0.52;;
49998;SDS011;68071;45.062;7.356;2023-08-07T07:43:02;1.48;;;0.50;;
49998;SDS011;68071;45.062;7.356;2023-08-07T07:46:06;1.73;;;0.50;;
49998;SDS011;68071;45.062;7.356;2023-08-07T07:49:11;1.33;;;0.70;;
49998;SDS011;68071;45.062;7.356;2023-08-07T07:52:15;1.17;;;0.57;;
49998;SDS011;68071;45.062;7.356;2023-08-07T07:55:19;1.15;;;0.60;;
49998;SDS011;68071;45.062;7.356;2023-08-07T07:58:23;0.88;;;0.43;;
49998;SDS011;68071;45.062;7.356;2023-08-07T08:01:27;1.50;;;0.60;;
49998;SDS011;68071;45.062;7.356;2023-08-07T08:04:32;0.80;;;0.60;;
49998;SDS011;68071;45.062;7.356;2023-08-07T08:07:39;1.02;;;0.43;;
49998;SDS011;68071;45.062;7.356;2023-08-07T08:10:44;1.67;;;0.55;;
49998;SDS011;68071;45.062;7.356;2023-08-07T08:13:50;1.70;;;0.60;;
49998;SDS011;68071;45.062;7.356;2023-08-07T08:16:54;1.58;;;0.70;;
49998;SDS011;68071;45.062;7.356;2023-08-07T08:19:58;1.83;;;0.55;;
49998;SDS011;68071;45.062;7.356;2023-08-07T08:23:02;1.20;;;0.60;;
49998;SDS011;68071;45.062;7.356;2023-08-07T08:26:07;1.52;;;0.60;;
49998;SDS011;68071;45.062;7.356;2023-08-07T08:29:13;1.50;;;0.70;;
49998;SDS011;68071;45.062;7.356;2023-08-07T08:32:18;1.15;;;0.60;;
49998;SDS011;68071;45.062;7.356;2023-08-07T08:35:22;1.30;;;0.50;;
49998;SDS011;68071;45.062;7.356;2023-08-07T08:38:26;2.83;;;1.00;;
49998;SDS011;68071;45.062;7.356;2023-08-07T08:41:36;1.63;;;0.50;;
49998;SDS011;68071;45.062;7.356;2023-08-07T08:44:40;1.10;;;0.47;;
49998;SDS011;68071;45.062;7.356;2023-08-07T08:47:44;2.28;;;0.57;;
49998;SDS011;68071;45.062;7.356;2023-08-07T08:50:50;1.25;;;0.50;;
49998;SDS011;68071;45.062;7.356;2023-08-07T08:53:55;12.00;;;2.67;;
49998;SDS011;68071;45.062;7.356;2023-08-07T08:57:00;1.50;;;0.60;;
49998;SDS011;68071;45.062;7.356;2023-08-07T09:00:05;1.42;;;0.60;;
49998;SDS011;68071;45.062;7.356;2023-08-07T09:03:21;1.90;;;0.50;;
49998;SDS011;68071;45.062;7.356;2023-08-07T09:06:25;3.13;;;0.70;;
49998;SDS011;68071;45.062;7.356;2023-08-07T09:09:31;2.08;;;0.77;;
49998;SDS011;68071;45.062;7.356;2023-08-07T09:12:35;2.15;;;0.80;;
49998;SDS011;68071;45.062;7.356;2023-08-07T09:15:43;1.67;;;0.60;;
49998;SDS011;68071;45.062;7.356;2023-08-07T09:18:54;1.23;;;0.68;;
49998;SDS011;68071;45.062;7.356;2023-08-07T09:21:58;1.80;;;0.70;;
49998;SDS011;68071;45.062;7.356;2023-08-07T09:25:02;3.05;;;0.65;;
49998;SDS011;68071;45.062;7.356;2023-08-07T09:28:07;1.70;;;0.70;;
49998;SDS011;68071;45.062;7.356;2023-08-07T09:31:14;1.55;;;0.60;;
49998;SDS011;68071;45.062;7.356;2023-08-07T09:34:19;0.88;;;0.52;;
49998;SDS011;68071;45.062;7.356;2023-08-07T09:37:23;1.58;;;0.63;;
49998;SDS011;68071;45.062;7.356;2023-08-07T09:40:27;2.35;;;0.70;;
49998;SDS011;68071;45.062;7.356;2023-08-07T09:43:36;2.53;;;0.80;;
49998;SDS011;68071;45.062;7.356;2023-08-07T09:46:41;1.60;;;0.70;;
49998;SDS011;68071;45.062;7.356;2023-08-07T09:49:47;1.55;;;0.70;;
49998;SDS011;68071;45.062;7.356;2023-08-07T09:55:55;1.25;;;0.68;;
49998;SDS011;68071;45.062;7.356;2023-08-07T09:59:01;1.55;;;0.90;;
49998;SDS011;68071;45.062;7.356;2023-08-07T10:02:05;1.30;;;0.63;;
49998;SDS011;68071;45.062;7.356;2023-08-07T10:05:10;1.65;;;0.73;;
49998;SDS011;68071;45.062;7.356;2023-08-07T10:11:18;1.95;;;0.60;;
49998;SDS011;68071;45.062;7.356;2023-08-07T10:14:23;2.60;;;0.83;;
49998;SDS011;68071;45.062;7.356;2023-08-07T10:17:28;1.83;;;0.70;;
49998;SDS011;68071;45.062;7.356;2023-08-07T10:20:33;2.03;;;0.77;;
49998;SDS011;68071;45.062;7.356;2023-08-07T10:23:37;1.45;;;0.80;;
49998;SDS011;68071;45.062;7.356;2023-08-07T10:26:43;1.33;;;0.68;;
49998;SDS011;68071;45.062;7.356;2023-08-07T10:29:49;1.58;;;0.60;;
49998;SDS011;68071;45.062;7.356;2023-08-07T10:32:55;1.85;;;0.73;;
49998;SDS011;68071;45.062;7.356;2023-08-07T10:36:07;1.13;;;0.63;;
49998;SDS011;68071;45.062;7.356;2023-08-07T10:39:13;1.42;;;0.52;;
49998;SDS011;68071;45.062;7.356;2023-08-07T10:42:19;1.70;;;0.70;;
49998;SDS011;68071;45.062;7.356;2023-08-07T10:45:24;1.13;;;0.52;;
49998;SDS011;68071;45.062;7.356;2023-08-07T10:48:28;2.90;;;0.60;;
49998;SDS011;68071;45.062;7.356;2023-08-07T10:51:32;1.67;;;0.68;;
49998;SDS011;68071;45.062;7.356;2023-08-07T10:54:40;1.80;;;0.75;;
49998;SDS011;68071;45.062;7.356;2023-08-07T10:57:53;1.05;;;0.70;;
49998;SDS011;68071;45.062;7.356;2023-08-07T11:04:23;2.03;;;0.73;;
49998;SDS011;68071;45.062;7.356;2023-08-07T11:07:29;2.60;;;0.60;;
49998;SDS011;68071;45.062;7.356;2023-08-07T11:10:34;0.98;;;0.45;;
49998;SDS011;68071;45.062;7.356;2023-08-07T11:13:38;1.55;;;0.70;;
49998;SDS011;68071;45.062;7.356;2023-08-07T11:16:42;1.98;;;1.00;;
49998;SDS011;68071;45.062;7.356;2023-08-07T11:19:47;1.48;;;0.80;;
49998;SDS011;68071;45.062;7.356;2023-08-07T11:22:51;1.38;;;0.55;;
49998;SDS011;68071;45.062;7.356;2023-08-07T11:25:55;1.52;;;0.70;;
49998;SDS011;68071;45.062;7.356;2023-08-07T11:28:59;1.80;;;1.00;;
49998;SDS011;68071;45.062;7.356;2023-08-07T11:32:04;1.35;;;0.73;;
49998;SDS011;68071;45.062;7.356;2023-08-07T11:35:09;2.63;;;0.82;;
49998;SDS011;68071;45.062;7.356;2023-08-07T11:38:28;2.58;;;0.90;;
49998;SDS011;68071;45.062;7.356;2023-08-07T11:41:37;1.60;;;0.65;;
49998;SDS011;68071;45.062;7.356;2023-08-07T11:44:41;1.50;;;0.70;;
49998;SDS011;68071;45.062;7.356;2023-08-07T11:47:45;2.22;;;0.90;;
49998;SDS011;68071;45.062;7.356;2023-08-07T11:50:50;2.60;;;0.80;;
49998;SDS011;68071;45.062;7.356;2023-08-07T11:53:53;1.58;;;0.70;;
49998;SDS011;68071;45.062;7.356;2023-08-07T11:57:00;1.35;;;0.82;;
49998;SDS011;68071;45.062;7.356;2023-08-07T12:00:06;1.60;;;0.80;;
49998;SDS011;68071;45.062;7.356;2023-08-07T12:03:29;1.80;;;0.80;;
49998;SDS011;68071;45.062;7.356;2023-08-07T12:06:35;1.30;;;0.65;;
49998;SDS011;68071;45.062;7.356;2023-08-07T12:09:39;1.27;;;0.63;;
49998;SDS011;68071;45.062;7.356;2023-08-07T12:12:44;1.98;;;0.93;;
49998;SDS011;68071;45.062;7.356;2023-08-07T12:15:50;2.08;;;0.73;;
49998;SDS011;68071;45.062;7.356;2023-08-07T12:18:55;3.53;;;0.73;;
49998;SDS011;68071;45.062;7.356;2023-08-07T12:21:59;1.73;;;0.85;;
49998;SDS011;68071;45.062;7.356;2023-08-07T12:25:03;2.20;;;0.70;;
49998;SDS011;68071;45.062;7.356;2023-08-07T12:28:07;1.25;;;0.70;;
49998;SDS011;68071;45.062;7.356;2023-08-07T12:31:11;1.65;;;0.93;;
49998;SDS011;68071;45.062;7.356;2023-08-07T12:34:15;1.50;;;0.70;;
49998;SDS011;68071;45.062;7.356;2023-08-07T12:37:20;2.40;;;0.77;;
49998;SDS011;68071;45.062;7.356;2023-08-07T12:40:24;1.88;;;0.70;;
49998;SDS011;68071;45.062;7.356;2023-08-07T12:46:33;2.30;;;0.80;;
49998;SDS011;68071;45.062;7.356;2023-08-07T12:49:36;1.23;;;0.60;;
49998;SDS011;68071;45.062;7.356;2023-08-07T12:52:40;2.28;;;0.63;;
49998;SDS011;68071;45.062;7.356;2023-08-07T12:55:44;1.60;;;0.65;;
49998;SDS011;68071;45.062;7.356;2023-08-07T12:58:48;1.65;;;0.95;;
49998;SDS011;68071;45.062;7.356;2023-08-07T13:01:53;1.30;;;0.77;;
49998;SDS011;68071;45.062;7.356;2023-08-07T13:04:57;1.70;;;0.70;;
49998;SDS011;68071;45.062;7.356;2023-08-07T13:08:01;2.00;;;0.88;;
49998;SDS011;68071;45.062;7.356;2023-08-07T13:11:05;1.73;;;1.00;;
49998;SDS011;68071;45.062;7.356;2023-08-07T13:14:09;1.50;;;0.63;;
49998;SDS011;68071;45.062;7.356;2023-08-07T13:17:13;1.13;;;0.68;;
49998;SDS011;68071;45.062;7.356;2023-08-07T13:20:17;2.45;;;0.70;;
49998;SDS011;68071;45.062;7.356;2023-08-07T13:23:21;1.25;;;0.52;;
49998;SDS011;68071;45.062;7.356;2023-08-07T13:26:25;2.63;;;0.70;;
49998;SDS011;68071;45.062;7.356;2023-08-07T13:29:29;1.98;;;0.75;;
49998;SDS011;68071;45.062;7.356;2023-08-07T13:32:33;1.00;;;0.50;;
49998;SDS011;68071;45.062;7.356;2023-08-07T13:35:37;2.13;;;0.50;;
49998;SDS011;68071;45.062;7.356;2023-08-07T13:38:41;1.10;;;0.60;;
49998;SDS011;68071;45.062;7.356;2023-08-07T13:41:45;1.40;;;0.80;;
49998;SDS011;68071;45.062;7.356;2023-08-07T13:44:49;1.80;;;0.98;;
49998;SDS011;68071;45.062;7.356;2023-08-07T13:47:53;1.60;;;0.70;;
49998;SDS011;68071;45.062;7.356;2023-08-07T13:50:57;2.13;;;1.02;;
49998;SDS011;68071;45.062;7.356;2023-08-07T13:54:01;1.80;;;0.90;;
49998;SDS011;68071;45.062;7.356;2023-08-07T13:57:05;1.33;;;0.63;;
49998;SDS011;68071;45.062;7.356;2023-08-07T14:00:10;1.13;;;0.50;;
49998;SDS011;68071;45.062;7.356;2023-08-07T14:03:14;1.15;;;0.65;;
49998;SDS011;68071;45.062;7.356;2023-08-07T14:06:18;0.93;;;0.47;;
49998;SDS011;68071;45.062;7.356;2023-08-07T14:09:22;1.40;;;0.90;;
49998;SDS011;68071;45.062;7.356;2023-08-07T14:12:26;0.93;;;0.60;;
49998;SDS011;68071;45.062;7.356;2023-08-07T14:15:30;1.30;;;0.68;;
49998;SDS011;68071;45.062;7.356;2023-08-07T14:18:34;3.17;;;0.90;;
49998;SDS011;68071;45.062;7.356;2023-08-07T14:21:38;3.23;;;0.90;;
49998;SDS011;68071;45.062;7.356;2023-08-07T14:24:42;3.40;;;1.00;;
49998;SDS011;68071;45.062;7.356;2023-08-07T14:27:46;2.00;;;0.95;;
49998;SDS011;68071;45.062;7.356;2023-08-07T14:30:50;2.00;;;0.70;;
49998;SDS011;68071;45.062;7.356;2023-08-07T14:33:54;1.50;;;0.80;;
49998;SDS011;68071;45.062;7.356;2023-08-07T14:37:00;2.05;;;0.70;;
49998;SDS011;68071;45.062;7.356;2023-08-07T14:40:04;3.77;;;1.17;;
49998;SDS011;68071;45.062;7.356;2023-08-07T14:43:09;1.95;;;0.80;;
49998;SDS011;68071;45.062;7.356;2023-08-07T14:46:14;2.58;;;0.77;;
49998;SDS011;68071;45.062;7.356;2023-08-07T14:49:21;1.50;;;0.77;;
49998;SDS011;68071;45.062;7.356;2023-08-07T14:52:25;1.25;;;0.70;;
49998;SDS011;68071;45.062;7.356;2023-08-07T14:55:29;2.33;;;0.75;;
49998;SDS011;68071;45.062;7.356;2023-08-07T14:58:34;1.30;;;0.50;;
49998;SDS011;68071;45.062;7.356;2023-08-07T15:01:38;2.17;;;0.80;;
49998;SDS011;68071;45.062;7.356;2023-08-07T15:04:42;3.28;;;0.50;;
49998;SDS011;68071;45.062;7.356;2023-08-07T15:07:46;1.50;;;0.70;;
49998;SDS011;68071;45.062;7.356;2023-08-07T15:10:51;4.40;;;0.90;;
49998;SDS011;68071;45.062;7.356;2023-08-07T15:13:56;3.42;;;0.90;;
49998;SDS011;68071;45.062;7.356;2023-08-07T15:17:00;3.73;;;0.87;;
49998;SDS011;68071;45.062;7.356;2023-08-07T15:20:04;3.43;;;0.90;;
49998;SDS011;68071;45.062;7.356;2023-08-07T15:23:09;1.30;;;0.60;;
49998;SDS011;68071;45.062;7.356;2023-08-07T15:26:13;1.88;;;1.02;;
49998;SDS011;68071;45.062;7.356;2023-08-07T15:29:17;1.97;;;0.70;;
49998;SDS011;68071;45.062;7.356;2023-08-07T15:32:21;11.43;;;1.87;;
49998;SDS011;68071;45.062;7.356;2023-08-07T15:35:25;2.15;;;0.68;;
49998;SDS011;68071;45.062;7.356;2023-08-07T15:38:32;2.03;;;0.90;;
49998;SDS011;68071;45.062;7.356;2023-08-07T15:41:39;2.53;;;0.73;;
49998;SDS011;68071;45.062;7.356;2023-08-07T15:44:43;1.63;;;0.70;;
49998;SDS011;68071;45.062;7.356;2023-08-07T15:47:47;2.08;;;0.63;;
49998;SDS011;68071;45.062;7.356;2023-08-07T15:50:51;8.97;;;1.50;;
49998;SDS011;68071;45.062;7.356;2023-08-07T15:53:54;4.37;;;0.93;;
49998;SDS011;68071;45.062;7.356;2023-08-07T15:57:01;4.82;;;0.90;;
49998;SDS011;68071;45.062;7.356;2023-08-07T16:00:05;10.00;;;1.42;;
49998;SDS011;68071;45.062;7.356;2023-08-07T16:03:16;3.17;;;0.68;;
49998;SDS011;68071;45.062;7.356;2023-08-07T16:06:21;3.25;;;0.70;;
49998;SDS011;68071;45.062;7.356;2023-08-07T16:09:24;1.80;;;0.85;;
49998;SDS011;68071;45.062;7.356;2023-08-07T16:12:28;2.10;;;0.80;;
49998;SDS011;68071;45.062;7.356;2023-08-07T16:15:32;2.03;;;0.93;;
49998;SDS011;68071;45.062;7.356;2023-08-07T16:18:37;1.08;;;0.63;;
49998;SDS011;68071;45.062;7.356;2023-08-07T16:21:41;2.17;;;0.73;;
49998;SDS011;68071;45.062;7.356;2023-08-07T16:24:45;2.65;;;0.75;;
49998;SDS011;68071;45.062;7.356;2023-08-07T16:27:50;1.33;;;0.70;;
49998;SDS011;68071;45.062;7.356;2023-08-07T16:30:54;1.20;;;0.60;;
49998;SDS011;68071;45.062;7.356;2023-08-07T16:33:58;4.28;;;0.80;;
49998;SDS011;68071;45.062;7.356;2023-08-07T16:37:02;2.10;;;0.70;;
49998;SDS011;68071;45.062;7.356;2023-08-07T16:40:06;2.22;;;0.75;;
49998;SDS011;68071;45.062;7.356;2023-08-07T16:43:11;1.90;;;0.95;;
49998;SDS011;68071;45.062;7.356;2023-08-07T16:46:15;2.25;;;0.80;;
49998;SDS011;68071;45.062;7.356;2023-08-07T16:52:25;2.05;;;0.55;;
49998;SDS011;68071;45.062;7.356;2023-08-07T16:55:29;1.80;;;0.70;;
49998;SDS011;68071;45.062;7.356;2023-08-07T16:58:33;2.33;;;0.77;;
49998;SDS011;68071;45.062;7.356;2023-08-07T17:01:37;2.03;;;0.80;;
49998;SDS011;68071;45.062;7.356;2023-08-07T17:04:42;2.58;;;0.73;;
49998;SDS011;68071;45.062;7.356;2023-08-07T17:07:46;2.47;;;0.80;;
49998;SDS011;68071;45.062;7.356;2023-08-07T17:10:50;2.03;;;1.70;;
49998;SDS011;68071;45.062;7.356;2023-08-07T17:13:54;3.47;;;2.53;;
49998;SDS011;68071;45.062;7.356;2023-08-07T17:16:58;3.42;;;2.92;;
49998;SDS011;68071;45.062;7.356;2023-08-07T17:20:03;2.42;;;1.70;;
49998;SDS011;68071;45.062;7.356;2023-08-07T17:23:07;1.98;;;1.17;;
49998;SDS011;68071;45.062;7.356;2023-08-07T17:26:11;3.08;;;1.08;;
49998;SDS011;68071;45.062;7.356;2023-08-07T17:29:15;1.80;;;1.00;;
49998;SDS011;68071;45.062;7.356;2023-08-07T17:32:19;2.22;;;0.70;;
49998;SDS011;68071;45.062;7.356;2023-08-07T17:35:23;2.80;;;1.10;;
49998;SDS011;68071;45.062;7.356;2023-08-07T17:38:27;2.67;;;1.10;;
49998;SDS011;68071;45.062;7.356;2023-08-07T17:41:32;3.55;;;1.10;;
49998;SDS011;68071;45.062;7.356;2023-08-07T17:44:36;3.35;;;1.45;;
49998;SDS011;68071;45.062;7.356;2023-08-07T17:47:40;5.90;;;3.72;;
49998;SDS011;68071;45.062;7.356;2023-08-07T17:50:44;1.40;;;0.80;;
49998;SDS011;68071;45.062;7.356;2023-08-07T17:53:48;1.42;;;0.80;;
49998;SDS011;68071;45.062;7.356;2023-08-07T17:56:52;2.28;;;0.60;;
49998;SDS011;68071;45.062;7.356;2023-08-07T17:59:56;1.63;;;0.80;;
49998;SDS011;68071;45.062;7.356;2023-08-07T18:03:00;2.00;;;0.77;;
49998;SDS011;68071;45.062;7.356;2023-08-07T18:06:04;1.17;;;0.60;;
49998;SDS011;68071;45.062;7.356;2023-08-07T18:09:08;1.58;;;0.70;;
49998;SDS011;68071;45.062;7.356;2023-08-07T18:12:12;2.67;;;0.73;;
49998;SDS011;68071;45.062;7.356;2023-08-07T18:15:16;1.45;;;0.70;;
49998;SDS011;68071;45.062;7.356;2023-08-07T18:18:20;3.13;;;2.42;;
49998;SDS011;68071;45.062;7.356;2023-08-07T18:21:24;3.10;;;2.65;;
49998;SDS011;68071;45.062;7.356;2023-08-07T18:24:28;3.13;;;1.92;;
49998;SDS011;68071;45.062;7.356;2023-08-07T18:27:32;3.22;;;2.00;;
49998;SDS011;68071;45.062;7.356;2023-08-07T18:30:36;2.83;;;1.15;;
49998;SDS011;68071;45.062;7.356;2023-08-07T18:33:40;1.80;;;1.25;;
49998;SDS011;68071;45.062;7.356;2023-08-07T18:36:44;2.65;;;1.70;;
49998;SDS011;68071;45.062;7.356;2023-08-07T18:39:49;4.45;;;3.25;;
49998;SDS011;68071;45.062;7.356;2023-08-07T18:42:53;6.03;;;4.00;;
49998;SDS011;68071;45.062;7.356;2023-08-07T18:45:57;4.10;;;1.70;;
49998;SDS011;68071;45.062;7.356;2023-08-07T18:49:01;5.28;;;1.70;;
49998;SDS011;68071;45.062;7.356;2023-08-07T18:52:05;2.03;;;0.82;;